sensor_id;sensor_type;location;lat;lon;timestamp;temperature;humidity
13322;DHT22;6730;46.248;6.930;2024-02-23T00:01:18;5.10;99.90
13322;DHT22;6730;46.248;6.930;2024-02-23T00:03:44;5.10;99.90
13322;DHT22;6730;46.248;6.930;2024-02-23T00:06:09;5.20;99.90
13322;DHT22;6730;46.248;6.930;2024-02-23T00:08:35;5.20;99.90
13322;DHT22;6730;46.248;6.930;2024-02-23T00:11:01;5.10;99.90
13322;DHT22;6730;46.248;6.930;2024-02-23T00:13:26;5.40;99.90
13322;DHT22;6730;46.248;6.930;2024-02-23T00:15:52;5.60;99.90
13322;DHT22;6730;46.248;6.930;2024-02-23T00:18:18;5.60;99.90
13322;DHT22;6730;46.248;6.930;2024-02-23T00:20:43;5.90;99.90
13322;DHT22;6730;46.248;6.930;2024-02-23T00:23:09;6.10;99.90
13322;DHT22;6730;46.248;6.930;2024-02-23T00:25:35;6.30;99.90
13322;DHT22;6730;46.248;6.930;2024-02-23T00:28:00;5.80;99.90
13322;DHT22;6730;46.248;6.930;2024-02-23T00:30:26;6.10;99.90
13322;DHT22;6730;46.248;6.930;2024-02-23T00:32:52;6.20;99.90
13322;DHT22;6730;46.248;6.930;2024-02-23T00:35:18;6.50;99.90
13322;DHT22;6730;46.248;6.930;2024-02-23T00:37:44;6.80;99.90
13322;DHT22;6730;46.248;6.930;2024-02-23T00:40:10;6.60;99.90
13322;DHT22;6730;46.248;6.930;2024-02-23T00:42:36;6.60;99.90
13322;DHT22;6730;46.248;6.930;2024-02-23T00:45:06;5.80;99.90
13322;DHT22;6730;46.248;6.930;2024-02-23T00:47:32;5.00;99.90
13322;DHT22;6730;46.248;6.930;2024-02-23T00:49:57;5.00;99.90
13322;DHT22;6730;46.248;6.930;2024-02-23T00:52:23;5.00;99.90
13322;DHT22;6730;46.248;6.930;2024-02-23T00:54:48;5.10;99.90
13322;DHT22;6730;46.248;6.930;2024-02-23T00:57:14;4.90;99.90
13322;DHT22;6730;46.248;6.930;2024-02-23T00:59:41;4.80;99.90
13322;DHT22;6730;46.248;6.930;2024-02-23T01:02:09;4.80;99.90
13322;DHT22;6730;46.248;6.930;2024-02-23T01:04:35;4.90;99.90
13322;DHT22;6730;46.248;6.930;2024-02-23T01:07:00;4.80;99.90
13322;DHT22;6730;46.248;6.930;2024-02-23T01:09:26;4.90;99.90
13322;DHT22;6730;46.248;6.930;2024-02-23T01:11:52;4.80;99.90
13322;DHT22;6730;46.248;6.930;2024-02-23T01:14:17;4.70;99.90
13322;DHT22;6730;46.248;6.930;2024-02-23T01:16:43;4.70;99.90
13322;DHT22;6730;46.248;6.930;2024-02-23T01:19:09;4.60;99.90
13322;DHT22;6730;46.248;6.930;2024-02-23T01:21:34;4.50;99.90
13322;DHT22;6730;46.248;6.930;2024-02-23T01:24:00;4.50;99.90
13322;DHT22;6730;46.248;6.930;2024-02-23T01:26:26;4.50;99.90
13322;DHT22;6730;46.248;6.930;2024-02-23T01:28:53;4.30;99.90
13322;DHT22;6730;46.248;6.930;2024-02-23T01:31:19;4.20;99.90
13322;DHT22;6730;46.248;6.930;2024-02-23T01:33:44;4.30;99.90
13322;DHT22;6730;46.248;6.930;2024-02-23T01:36:10;4.40;99.90
13322;DHT22;6730;46.248;6.930;2024-02-23T01:38:36;4.30;99.90
13322;DHT22;6730;46.248;6.930;2024-02-23T01:41:02;4.30;99.90
13322;DHT22;6730;46.248;6.930;2024-02-23T01:43:28;4.40;99.90
13322;DHT22;6730;46.248;6.930;2024-02-23T01:45:54;4.20;99.90
13322;DHT22;6730;46.248;6.930;2024-02-23T01:48:20;4.10;99.90
13322;DHT22;6730;46.248;6.930;2024-02-23T01:50:46;4.10;99.90
13322;DHT22;6730;46.248;6.930;2024-02-23T01:53:12;4.00;99.90
13322;DHT22;6730;46.248;6.930;2024-02-23T01:55:41;3.90;99.90
13322;DHT22;6730;46.248;6.930;2024-02-23T01:58:07;3.80;99.90
13322;DHT22;6730;46.248;6.930;2024-02-23T02:00:35;3.80;99.90
13322;DHT22;6730;46.248;6.930;2024-02-23T02:03:01;3.80;99.90
13322;DHT22;6730;46.248;6.930;2024-02-23T02:05:27;3.90;99.90
13322;DHT22;6730;46.248;6.930;2024-02-23T02:07:55;4.00;99.90
13322;DHT22;6730;46.248;6.930;2024-02-23T02:10:24;4.00;99.90
13322;DHT22;6730;46.248;6.930;2024-02-23T02:12:50;4.20;99.90
13322;DHT22;6730;46.248;6.930;2024-02-23T02:15:16;4.30;99.90
13322;DHT22;6730;46.248;6.930;2024-02-23T02:17:42;4.30;99.90
13322;DHT22;6730;46.248;6.930;2024-02-23T02:20:11;4.30;99.90
13322;DHT22;6730;46.248;6.930;2024-02-23T02:22:37;4.40;99.90
13322;DHT22;6730;46.248;6.930;2024-02-23T02:25:03;4.60;99.90
13322;DHT22;6730;46.248;6.930;2024-02-23T02:27:29;4.70;99.90
13322;DHT22;6730;46.248;6.930;2024-02-23T02:29:55;5.00;99.90
13322;DHT22;6730;46.248;6.930;2024-02-23T02:32:21;5.30;99.90
13322;DHT22;6730;46.248;6.930;2024-02-23T02:34:46;5.20;99.90
13322;DHT22;6730;46.248;6.930;2024-02-23T02:37:12;5.30;99.90
13322;DHT22;6730;46.248;6.930;2024-02-23T02:39:38;5.60;99.90
13322;DHT22;6730;46.248;6.930;2024-02-23T02:42:04;5.70;99.90
13322;DHT22;6730;46.248;6.930;2024-02-23T02:44:29;5.90;99.90
13322;DHT22;6730;46.248;6.930;2024-02-23T02:46:57;5.70;99.90
13322;DHT22;6730;46.248;6.930;2024-02-23T02:49:23;5.80;99.90
13322;DHT22;6730;46.248;6.930;2024-02-23T02:51:49;6.00;99.90
13322;DHT22;6730;46.248;6.930;2024-02-23T02:54:15;5.70;99.90
13322;DHT22;6730;46.248;6.930;2024-02-23T02:56:47;5.60;99.90
13322;DHT22;6730;46.248;6.930;2024-02-23T02:59:12;5.90;99.90
13322;DHT22;6730;46.248;6.930;2024-02-23T03:01:39;5.80;99.90
13322;DHT22;6730;46.248;6.930;2024-02-23T03:04:05;5.70;99.90
13322;DHT22;6730;46.248;6.930;2024-02-23T03:06:30;6.00;99.90
13322;DHT22;6730;46.248;6.930;2024-02-23T03:08:56;6.10;99.90
13322;DHT22;6730;46.248;6.930;2024-02-23T03:11:22;6.10;99.90
13322;DHT22;6730;46.248;6.930;2024-02-23T03:13:48;5.90;99.90
13322;DHT22;6730;46.248;6.930;2024-02-23T03:16:17;5.80;99.90
13322;DHT22;6730;46.248;6.930;2024-02-23T03:18:43;5.30;99.90
13322;DHT22;6730;46.248;6.930;2024-02-23T03:21:09;5.30;99.90
13322;DHT22;6730;46.248;6.930;2024-02-23T03:23:35;5.30;99.90
13322;DHT22;6730;46.248;6.930;2024-02-23T03:26:01;5.70;99.90
13322;DHT22;6730;46.248;6.930;2024-02-23T03:28:28;5.80;99.90
13322;DHT22;6730;46.248;6.930;2024-02-23T03:30:54;5.70;99.90
13322;DHT22;6730;46.248;6.930;2024-02-23T03:33:19;5.80;99.90
13322;DHT22;6730;46.248;6.930;2024-02-23T03:35:45;5.60;99.90
13322;DHT22;6730;46.248;6.930;2024-02-23T03:38:11;5.70;99.90
13322;DHT22;6730;46.248;6.930;2024-02-23T03:40:40;5.80;99.90
13322;DHT22;6730;46.248;6.930;2024-02-23T03:43:06;6.00;99.90
13322;DHT22;6730;46.248;6.930;2024-02-23T03:45:32;6.00;99.90
13322;DHT22;6730;46.248;6.930;2024-02-23T03:47:58;5.90;99.90
13322;DHT22;6730;46.248;6.930;2024-02-23T03:50:27;6.00;99.90
13322;DHT22;6730;46.248;6.930;2024-02-23T03:52:53;6.00;99.90
13322;DHT22;6730;46.248;6.930;2024-02-23T03:55:22;5.90;99.90
13322;DHT22;6730;46.248;6.930;2024-02-23T03:57:48;5.60;99.90
13322;DHT22;6730;46.248;6.930;2024-02-23T04:00:14;5.20;99.90
13322;DHT22;6730;46.248;6.930;2024-02-23T04:02:40;5.10;99.90
13322;DHT22;6730;46.248;6.930;2024-02-23T04:05:06;4.90;99.90
13322;DHT22;6730;46.248;6.930;2024-02-23T04:07:32;5.20;99.90
13322;DHT22;6730;46.248;6.930;2024-02-23T04:09:57;5.30;99.90
13322;DHT22;6730;46.248;6.930;2024-02-23T04:12:26;5.50;99.90
13322;DHT22;6730;46.248;6.930;2024-02-23T04:14:51;5.50;99.90
13322;DHT22;6730;46.248;6.930;2024-02-23T04:17:17;5.50;99.90
13322;DHT22;6730;46.248;6.930;2024-02-23T04:19:44;5.40;99.90
13322;DHT22;6730;46.248;6.930;2024-02-23T04:22:10;5.40;99.90
13322;DHT22;6730;46.248;6.930;2024-02-23T04:24:39;5.50;99.90
13322;DHT22;6730;46.248;6.930;2024-02-23T04:27:05;5.30;99.90
13322;DHT22;6730;46.248;6.930;2024-02-23T04:29:31;5.30;99.90
13322;DHT22;6730;46.248;6.930;2024-02-23T04:31:59;5.10;99.90
13322;DHT22;6730;46.248;6.930;2024-02-23T04:34:24;5.00;99.90
13322;DHT22;6730;46.248;6.930;2024-02-23T04:36:50;5.00;99.90
13322;DHT22;6730;46.248;6.930;2024-02-23T04:39:16;5.10;99.90
13322;DHT22;6730;46.248;6.930;2024-02-23T04:41:41;5.20;99.90
13322;DHT22;6730;46.248;6.930;2024-02-23T04:44:07;5.30;99.90
13322;DHT22;6730;46.248;6.930;2024-02-23T04:46:34;5.20;99.90
13322;DHT22;6730;46.248;6.930;2024-02-23T04:49:00;5.10;99.90
13322;DHT22;6730;46.248;6.930;2024-02-23T04:51:26;5.40;99.90
13322;DHT22;6730;46.248;6.930;2024-02-23T04:53:52;5.60;99.90
13322;DHT22;6730;46.248;6.930;2024-02-23T04:56:18;5.70;99.90
13322;DHT22;6730;46.248;6.930;2024-02-23T04:58:44;5.50;99.90
13322;DHT22;6730;46.248;6.930;2024-02-23T05:01:10;5.60;99.90
13322;DHT22;6730;46.248;6.930;2024-02-23T05:03:36;5.60;99.90
13322;DHT22;6730;46.248;6.930;2024-02-23T05:06:03;5.40;99.90
13322;DHT22;6730;46.248;6.930;2024-02-23T05:08:29;5.20;99.90
13322;DHT22;6730;46.248;6.930;2024-02-23T05:10:56;5.10;99.90
13322;DHT22;6730;46.248;6.930;2024-02-23T05:13:22;5.00;99.90
13322;DHT22;6730;46.248;6.930;2024-02-23T05:15:47;5.00;99.90
13322;DHT22;6730;46.248;6.930;2024-02-23T05:18:13;5.00;99.90
13322;DHT22;6730;46.248;6.930;2024-02-23T05:20:38;4.90;99.90
13322;DHT22;6730;46.248;6.930;2024-02-23T05:23:04;4.80;99.90
13322;DHT22;6730;46.248;6.930;2024-02-23T05:25:30;4.60;99.90
13322;DHT22;6730;46.248;6.930;2024-02-23T05:27:55;4.40;99.90
13322;DHT22;6730;46.248;6.930;2024-02-23T05:30:21;4.30;99.90
13322;DHT22;6730;46.248;6.930;2024-02-23T05:32:47;4.40;99.90
13322;DHT22;6730;46.248;6.930;2024-02-23T05:35:13;4.40;99.90
13322;DHT22;6730;46.248;6.930;2024-02-23T05:37:40;4.50;99.90
13322;DHT22;6730;46.248;6.930;2024-02-23T05:40:06;4.50;99.90
13322;DHT22;6730;46.248;6.930;2024-02-23T05:42:36;4.60;99.90
13322;DHT22;6730;46.248;6.930;2024-02-23T05:45:02;4.60;99.90
13322;DHT22;6730;46.248;6.930;2024-02-23T05:47:30;4.60;99.90
13322;DHT22;6730;46.248;6.930;2024-02-23T05:49:56;4.60;99.90
13322;DHT22;6730;46.248;6.930;2024-02-23T05:52:22;4.50;99.90
13322;DHT22;6730;46.248;6.930;2024-02-23T05:54:47;4.70;99.90
13322;DHT22;6730;46.248;6.930;2024-02-23T05:57:13;4.80;99.90
13322;DHT22;6730;46.248;6.930;2024-02-23T05:59:39;4.70;99.90
13322;DHT22;6730;46.248;6.930;2024-02-23T06:02:04;4.70;99.90
13322;DHT22;6730;46.248;6.930;2024-02-23T06:04:31;4.80;99.90
13322;DHT22;6730;46.248;6.930;2024-02-23T06:06:57;4.80;99.90
13322;DHT22;6730;46.248;6.930;2024-02-23T06:09:23;4.70;99.90
13322;DHT22;6730;46.248;6.930;2024-02-23T06:11:48;4.60;99.90
13322;DHT22;6730;46.248;6.930;2024-02-23T06:14:14;4.50;99.90
13322;DHT22;6730;46.248;6.930;2024-02-23T06:16:40;4.30;99.90
13322;DHT22;6730;46.248;6.930;2024-02-23T06:19:06;4.40;99.90
13322;DHT22;6730;46.248;6.930;2024-02-23T06:21:31;4.40;99.90
13322;DHT22;6730;46.248;6.930;2024-02-23T06:23:58;4.40;99.90
13322;DHT22;6730;46.248;6.930;2024-02-23T06:26:23;4.40;99.90
13322;DHT22;6730;46.248;6.930;2024-02-23T06:28:49;4.50;99.90
13322;DHT22;6730;46.248;6.930;2024-02-23T06:31:15;4.50;99.90
13322;DHT22;6730;46.248;6.930;2024-02-23T06:33:41;4.60;99.90
13322;DHT22;6730;46.248;6.930;2024-02-23T06:36:07;4.50;99.90
13322;DHT22;6730;46.248;6.930;2024-02-23T06:38:33;4.40;99.90
13322;DHT22;6730;46.248;6.930;2024-02-23T06:40:59;4.40;99.90
13322;DHT22;6730;46.248;6.930;2024-02-23T06:43:25;4.40;99.90
13322;DHT22;6730;46.248;6.930;2024-02-23T06:45:58;4.30;99.90
13322;DHT22;6730;46.248;6.930;2024-02-23T06:48:23;4.20;99.90
13322;DHT22;6730;46.248;6.930;2024-02-23T06:50:50;4.20;99.90
13322;DHT22;6730;46.248;6.930;2024-02-23T06:53:16;4.30;99.90
13322;DHT22;6730;46.248;6.930;2024-02-23T06:55:42;4.30;99.90
13322;DHT22;6730;46.248;6.930;2024-02-23T06:58:07;4.30;99.90
13322;DHT22;6730;46.248;6.930;2024-02-23T07:00:35;4.20;99.90
13322;DHT22;6730;46.248;6.930;2024-02-23T07:03:02;4.20;99.90
13322;DHT22;6730;46.248;6.930;2024-02-23T07:05:29;4.20;99.90
13322;DHT22;6730;46.248;6.930;2024-02-23T07:07:54;4.10;99.90
13322;DHT22;6730;46.248;6.930;2024-02-23T07:10:20;4.10;99.90
13322;DHT22;6730;46.248;6.930;2024-02-23T07:12:47;4.00;99.90
13322;DHT22;6730;46.248;6.930;2024-02-23T07:15:14;3.80;99.90
13322;DHT22;6730;46.248;6.930;2024-02-23T07:17:39;3.80;99.90
13322;DHT22;6730;46.248;6.930;2024-02-23T07:20:05;3.80;99.90
13322;DHT22;6730;46.248;6.930;2024-02-23T07:22:34;3.90;99.90
13322;DHT22;6730;46.248;6.930;2024-02-23T07:25:00;4.10;99.90
13322;DHT22;6730;46.248;6.930;2024-02-23T07:27:29;4.10;99.90
13322;DHT22;6730;46.248;6.930;2024-02-23T07:29:55;4.10;99.90
13322;DHT22;6730;46.248;6.930;2024-02-23T07:32:20;4.20;99.90
13322;DHT22;6730;46.248;6.930;2024-02-23T07:34:46;4.90;99.90
13322;DHT22;6730;46.248;6.930;2024-02-23T07:37:13;5.60;99.90
13322;DHT22;6730;46.248;6.930;2024-02-23T07:39:38;6.30;99.90
13322;DHT22;6730;46.248;6.930;2024-02-23T07:42:05;6.70;99.90
13322;DHT22;6730;46.248;6.930;2024-02-23T07:44:32;7.40;99.90
13322;DHT22;6730;46.248;6.930;2024-02-23T07:46:57;7.70;99.90
13322;DHT22;6730;46.248;6.930;2024-02-23T07:49:24;7.50;99.90
13322;DHT22;6730;46.248;6.930;2024-02-23T07:51:50;7.70;99.90
13322;DHT22;6730;46.248;6.930;2024-02-23T07:54:16;8.40;99.90
13322;DHT22;6730;46.248;6.930;2024-02-23T07:56:42;9.10;99.90
13322;DHT22;6730;46.248;6.930;2024-02-23T07:59:07;9.40;99.90
13322;DHT22;6730;46.248;6.930;2024-02-23T08:01:33;9.20;99.90
13322;DHT22;6730;46.248;6.930;2024-02-23T08:03:59;8.70;99.90
13322;DHT22;6730;46.248;6.930;2024-02-23T08:06:25;8.80;99.90
13322;DHT22;6730;46.248;6.930;2024-02-23T08:08:51;8.50;99.90
13322;DHT22;6730;46.248;6.930;2024-02-23T08:11:19;8.20;99.90
13322;DHT22;6730;46.248;6.930;2024-02-23T08:13:45;7.90;99.90
13322;DHT22;6730;46.248;6.930;2024-02-23T08:16:10;8.20;99.90
13322;DHT22;6730;46.248;6.930;2024-02-23T08:18:36;9.00;99.90
13322;DHT22;6730;46.248;6.930;2024-02-23T08:21:02;9.30;99.90
13322;DHT22;6730;46.248;6.930;2024-02-23T08:23:28;9.40;99.90
13322;DHT22;6730;46.248;6.930;2024-02-23T08:25:55;9.20;99.90
13322;DHT22;6730;46.248;6.930;2024-02-23T08:28:22;8.90;99.90
13322;DHT22;6730;46.248;6.930;2024-02-23T08:30:48;8.80;99.90
13322;DHT22;6730;46.248;6.930;2024-02-23T08:33:14;8.70;99.90
13322;DHT22;6730;46.248;6.930;2024-02-23T08:35:40;8.90;99.90
13322;DHT22;6730;46.248;6.930;2024-02-23T08:38:05;9.70;99.90
13322;DHT22;6730;46.248;6.930;2024-02-23T08:40:31;10.50;99.90
13322;DHT22;6730;46.248;6.930;2024-02-23T08:42:57;10.10;99.90
13322;DHT22;6730;46.248;6.930;2024-02-23T08:45:22;9.20;99.90
13322;DHT22;6730;46.248;6.930;2024-02-23T08:47:48;9.20;99.90
13322;DHT22;6730;46.248;6.930;2024-02-23T08:50:14;9.30;99.90
13322;DHT22;6730;46.248;6.930;2024-02-23T08:52:40;9.20;99.90
13322;DHT22;6730;46.248;6.930;2024-02-23T08:55:05;9.40;99.90
13322;DHT22;6730;46.248;6.930;2024-02-23T08:57:31;9.90;99.90
13322;DHT22;6730;46.248;6.930;2024-02-23T08:59:57;10.10;99.90
13322;DHT22;6730;46.248;6.930;2024-02-23T09:02:24;10.40;99.90
13322;DHT22;6730;46.248;6.930;2024-02-23T09:04:49;10.90;99.90
13322;DHT22;6730;46.248;6.930;2024-02-23T09:07:15;11.20;99.90
13322;DHT22;6730;46.248;6.930;2024-02-23T09:09:41;10.90;99.90
13322;DHT22;6730;46.248;6.930;2024-02-23T09:12:07;10.50;99.90
13322;DHT22;6730;46.248;6.930;2024-02-23T09:14:36;10.50;99.90
13322;DHT22;6730;46.248;6.930;2024-02-23T09:17:03;10.20;99.90
13322;DHT22;6730;46.248;6.930;2024-02-23T09:19:29;9.90;99.90
13322;DHT22;6730;46.248;6.930;2024-02-23T09:21:55;9.60;99.90
13322;DHT22;6730;46.248;6.930;2024-02-23T09:24:21;9.80;99.90
13322;DHT22;6730;46.248;6.930;2024-02-23T09:26:47;10.00;99.90
13322;DHT22;6730;46.248;6.930;2024-02-23T09:29:13;9.70;99.90
13322;DHT22;6730;46.248;6.930;2024-02-23T09:31:39;10.30;99.90
13322;DHT22;6730;46.248;6.930;2024-02-23T09:34:04;11.00;99.90
13322;DHT22;6730;46.248;6.930;2024-02-23T09:36:30;12.10;99.90
13322;DHT22;6730;46.248;6.930;2024-02-23T09:38:56;12.70;99.90
13322;DHT22;6730;46.248;6.930;2024-02-23T09:41:23;11.10;99.90
13322;DHT22;6730;46.248;6.930;2024-02-23T09:43:50;9.20;99.90
13322;DHT22;6730;46.248;6.930;2024-02-23T09:46:17;8.90;99.90
13322;DHT22;6730;46.248;6.930;2024-02-23T09:48:48;8.80;99.90
13322;DHT22;6730;46.248;6.930;2024-02-23T09:51:15;9.10;99.90
13322;DHT22;6730;46.248;6.930;2024-02-23T09:53:42;9.70;99.90
13322;DHT22;6730;46.248;6.930;2024-02-23T09:56:10;10.00;99.90
13322;DHT22;6730;46.248;6.930;2024-02-23T09:58:37;9.70;99.90
13322;DHT22;6730;46.248;6.930;2024-02-23T10:01:03;10.40;99.90
13322;DHT22;6730;46.248;6.930;2024-02-23T10:03:31;11.30;99.90
13322;DHT22;6730;46.248;6.930;2024-02-23T10:06:00;11.90;99.90
13322;DHT22;6730;46.248;6.930;2024-02-23T10:08:28;11.20;99.90
13322;DHT22;6730;46.248;6.930;2024-02-23T10:10:55;11.80;99.90
13322;DHT22;6730;46.248;6.930;2024-02-23T10:13:23;11.30;99.90
13322;DHT22;6730;46.248;6.930;2024-02-23T10:15:52;10.00;99.90
13322;DHT22;6730;46.248;6.930;2024-02-23T10:18:19;9.80;99.90
13322;DHT22;6730;46.248;6.930;2024-02-23T10:20:47;10.00;99.90
13322;DHT22;6730;46.248;6.930;2024-02-23T10:23:13;9.90;99.90
13322;DHT22;6730;46.248;6.930;2024-02-23T10:25:39;10.20;99.90
13322;DHT22;6730;46.248;6.930;2024-02-23T10:28:06;10.80;99.90
13322;DHT22;6730;46.248;6.930;2024-02-23T10:30:32;11.30;99.90
13322;DHT22;6730;46.248;6.930;2024-02-23T10:32:58;11.70;99.90
13322;DHT22;6730;46.248;6.930;2024-02-23T10:35:25;12.20;99.90
13322;DHT22;6730;46.248;6.930;2024-02-23T10:37:52;13.30;99.90
13322;DHT22;6730;46.248;6.930;2024-02-23T10:40:20;12.60;99.90
13322;DHT22;6730;46.248;6.930;2024-02-23T10:42:47;11.30;99.90
13322;DHT22;6730;46.248;6.930;2024-02-23T10:45:20;11.30;99.90
13322;DHT22;6730;46.248;6.930;2024-02-23T10:47:50;10.90;99.90
13322;DHT22;6730;46.248;6.930;2024-02-23T10:50:17;11.40;99.90
13322;DHT22;6730;46.248;6.930;2024-02-23T10:52:45;10.80;99.90
13322;DHT22;6730;46.248;6.930;2024-02-23T10:55:13;10.40;99.90
13322;DHT22;6730;46.248;6.930;2024-02-23T10:57:39;10.70;99.90
13322;DHT22;6730;46.248;6.930;2024-02-23T11:00:07;9.70;99.90
13322;DHT22;6730;46.248;6.930;2024-02-23T11:02:43;10.10;99.90
13322;DHT22;6730;46.248;6.930;2024-02-23T11:05:11;10.00;99.90
13322;DHT22;6730;46.248;6.930;2024-02-23T11:07:46;9.60;99.90
13322;DHT22;6730;46.248;6.930;2024-02-23T11:10:15;9.70;99.90
13322;DHT22;6730;46.248;6.930;2024-02-23T11:12:41;9.80;99.90
13322;DHT22;6730;46.248;6.930;2024-02-23T11:15:06;9.70;99.90
13322;DHT22;6730;46.248;6.930;2024-02-23T11:17:35;9.50;99.90
13322;DHT22;6730;46.248;6.930;2024-02-23T11:20:04;9.80;99.90
13322;DHT22;6730;46.248;6.930;2024-02-23T11:22:31;10.90;99.90
13322;DHT22;6730;46.248;6.930;2024-02-23T11:25:07;10.70;99.90
13322;DHT22;6730;46.248;6.930;2024-02-23T11:27:37;10.80;99.90
13322;DHT22;6730;46.248;6.930;2024-02-23T11:30:05;10.80;99.90
13322;DHT22;6730;46.248;6.930;2024-02-23T11:32:43;10.20;99.90
13322;DHT22;6730;46.248;6.930;2024-02-23T11:35:16;9.80;99.90
13322;DHT22;6730;46.248;6.930;2024-02-23T11:38:03;9.80;99.90
13322;DHT22;6730;46.248;6.930;2024-02-23T11:40:31;10.10;99.90
13322;DHT22;6730;46.248;6.930;2024-02-23T11:42:57;10.60;99.90
13322;DHT22;6730;46.248;6.930;2024-02-23T11:45:25;10.20;99.90
13322;DHT22;6730;46.248;6.930;2024-02-23T11:47:53;10.20;99.90
13322;DHT22;6730;46.248;6.930;2024-02-23T11:50:18;10.60;99.90
13322;DHT22;6730;46.248;6.930;2024-02-23T11:52:47;10.80;99.90
13322;DHT22;6730;46.248;6.930;2024-02-23T11:55:20;11.30;99.90
13322;DHT22;6730;46.248;6.930;2024-02-23T11:57:48;11.50;99.90
13322;DHT22;6730;46.248;6.930;2024-02-23T12:00:14;9.90;99.90
13322;DHT22;6730;46.248;6.930;2024-02-23T12:02:40;9.30;99.90
13322;DHT22;6730;46.248;6.930;2024-02-23T12:05:06;9.10;99.90
13322;DHT22;6730;46.248;6.930;2024-02-23T12:07:32;9.40;99.90
13322;DHT22;6730;46.248;6.930;2024-02-23T12:10:00;9.60;99.90
13322;DHT22;6730;46.248;6.930;2024-02-23T12:12:26;9.70;99.90
13322;DHT22;6730;46.248;6.930;2024-02-23T12:14:52;9.80;99.90
13322;DHT22;6730;46.248;6.930;2024-02-23T12:17:18;10.00;99.90
13322;DHT22;6730;46.248;6.930;2024-02-23T12:19:44;10.40;99.90
13322;DHT22;6730;46.248;6.930;2024-02-23T12:22:10;10.90;99.90
13322;DHT22;6730;46.248;6.930;2024-02-23T12:24:37;11.20;99.90
13322;DHT22;6730;46.248;6.930;2024-02-23T12:27:03;11.40;99.90
13322;DHT22;6730;46.248;6.930;2024-02-23T12:29:30;11.00;99.90
13322;DHT22;6730;46.248;6.930;2024-02-23T12:32:06;9.70;99.90
13322;DHT22;6730;46.248;6.930;2024-02-23T12:34:32;8.90;99.90
13322;DHT22;6730;46.248;6.930;2024-02-23T12:36:58;9.00;99.90
13322;DHT22;6730;46.248;6.930;2024-02-23T12:39:24;8.90;99.90
13322;DHT22;6730;46.248;6.930;2024-02-23T12:41:50;8.60;99.90
13322;DHT22;6730;46.248;6.930;2024-02-23T12:44:16;8.80;99.90
13322;DHT22;6730;46.248;6.930;2024-02-23T12:46:42;8.90;99.90
13322;DHT22;6730;46.248;6.930;2024-02-23T12:49:07;9.10;99.90
13322;DHT22;6730;46.248;6.930;2024-02-23T12:51:33;8.90;99.90
13322;DHT22;6730;46.248;6.930;2024-02-23T12:54:00;8.80;99.90
13322;DHT22;6730;46.248;6.930;2024-02-23T12:56:26;8.60;99.90
13322;DHT22;6730;46.248;6.930;2024-02-23T12:58:51;8.20;99.90
13322;DHT22;6730;46.248;6.930;2024-02-23T13:01:19;8.10;99.90
13322;DHT22;6730;46.248;6.930;2024-02-23T13:03:45;8.10;99.90
13322;DHT22;6730;46.248;6.930;2024-02-23T13:06:10;8.00;99.90
13322;DHT22;6730;46.248;6.930;2024-02-23T13:08:36;8.20;99.90
13322;DHT22;6730;46.248;6.930;2024-02-23T13:11:04;8.60;99.90
13322;DHT22;6730;46.248;6.930;2024-02-23T13:13:30;8.80;99.90
13322;DHT22;6730;46.248;6.930;2024-02-23T13:15:56;9.00;99.90
13322;DHT22;6730;46.248;6.930;2024-02-23T13:18:22;9.40;99.90
13322;DHT22;6730;46.248;6.930;2024-02-23T13:20:48;9.80;99.90
13322;DHT22;6730;46.248;6.930;2024-02-23T13:23:14;10.30;99.90
13322;DHT22;6730;46.248;6.930;2024-02-23T13:25:41;10.30;99.90
13322;DHT22;6730;46.248;6.930;2024-02-23T13:28:08;9.70;99.90
13322;DHT22;6730;46.248;6.930;2024-02-23T13:30:34;9.10;99.90
13322;DHT22;6730;46.248;6.930;2024-02-23T13:33:00;9.10;99.90
13322;DHT22;6730;46.248;6.930;2024-02-23T13:35:26;8.70;99.90
13322;DHT22;6730;46.248;6.930;2024-02-23T13:37:52;8.20;99.90
13322;DHT22;6730;46.248;6.930;2024-02-23T13:40:18;8.00;99.90
13322;DHT22;6730;46.248;6.930;2024-02-23T13:42:44;8.10;99.90
13322;DHT22;6730;46.248;6.930;2024-02-23T13:45:16;7.90;99.90
13322;DHT22;6730;46.248;6.930;2024-02-23T13:47:42;7.90;99.90
13322;DHT22;6730;46.248;6.930;2024-02-23T13:50:10;8.10;99.90
13322;DHT22;6730;46.248;6.930;2024-02-23T13:52:36;8.50;99.90
13322;DHT22;6730;46.248;6.930;2024-02-23T13:55:02;9.00;99.90
13322;DHT22;6730;46.248;6.930;2024-02-23T13:57:28;9.10;99.90
13322;DHT22;6730;46.248;6.930;2024-02-23T13:59:55;9.20;99.90
13322;DHT22;6730;46.248;6.930;2024-02-23T14:02:27;9.50;99.90
13322;DHT22;6730;46.248;6.930;2024-02-23T14:04:59;9.60;99.90
13322;DHT22;6730;46.248;6.930;2024-02-23T14:07:28;9.40;99.90
13322;DHT22;6730;46.248;6.930;2024-02-23T14:09:54;9.20;99.90
13322;DHT22;6730;46.248;6.930;2024-02-23T14:12:19;9.00;99.90
13322;DHT22;6730;46.248;6.930;2024-02-23T14:14:45;9.10;99.90
13322;DHT22;6730;46.248;6.930;2024-02-23T14:17:11;8.50;99.90
13322;DHT22;6730;46.248;6.930;2024-02-23T14:19:36;7.80;99.90
13322;DHT22;6730;46.248;6.930;2024-02-23T14:22:02;7.60;99.90
13322;DHT22;6730;46.248;6.930;2024-02-23T14:24:28;7.70;99.90
13322;DHT22;6730;46.248;6.930;2024-02-23T14:26:53;7.80;99.90
13322;DHT22;6730;46.248;6.930;2024-02-23T14:29:19;7.80;99.90
13322;DHT22;6730;46.248;6.930;2024-02-23T14:31:44;7.80;99.90
13322;DHT22;6730;46.248;6.930;2024-02-23T14:34:10;7.70;99.90
13322;DHT22;6730;46.248;6.930;2024-02-23T14:36:36;7.80;99.90
13322;DHT22;6730;46.248;6.930;2024-02-23T14:39:02;7.70;99.90
13322;DHT22;6730;46.248;6.930;2024-02-23T14:41:29;7.60;99.90
13322;DHT22;6730;46.248;6.930;2024-02-23T14:43:55;7.40;99.90
13322;DHT22;6730;46.248;6.930;2024-02-23T14:46:21;7.40;99.90
13322;DHT22;6730;46.248;6.930;2024-02-23T14:48:46;7.70;99.90
13322;DHT22;6730;46.248;6.930;2024-02-23T14:51:15;8.00;99.90
13322;DHT22;6730;46.248;6.930;2024-02-23T14:53:41;8.20;99.90
13322;DHT22;6730;46.248;6.930;2024-02-23T14:56:06;8.20;99.90
13322;DHT22;6730;46.248;6.930;2024-02-23T14:58:32;7.70;99.90
13322;DHT22;6730;46.248;6.930;2024-02-23T15:00:58;7.40;99.90
13322;DHT22;6730;46.248;6.930;2024-02-23T15:03:24;7.40;99.90
13322;DHT22;6730;46.248;6.930;2024-02-23T15:05:49;7.30;99.90
13322;DHT22;6730;46.248;6.930;2024-02-23T15:08:15;7.30;99.90
13322;DHT22;6730;46.248;6.930;2024-02-23T15:10:41;7.30;99.90
13322;DHT22;6730;46.248;6.930;2024-02-23T15:13:07;7.20;99.90
13322;DHT22;6730;46.248;6.930;2024-02-23T15:15:33;7.20;99.90
13322;DHT22;6730;46.248;6.930;2024-02-23T15:17:58;7.10;99.90
13322;DHT22;6730;46.248;6.930;2024-02-23T15:20:24;7.10;99.90
13322;DHT22;6730;46.248;6.930;2024-02-23T15:22:49;7.10;99.90
13322;DHT22;6730;46.248;6.930;2024-02-23T15:25:15;7.00;99.90
13322;DHT22;6730;46.248;6.930;2024-02-23T15:27:41;7.00;99.90
13322;DHT22;6730;46.248;6.930;2024-02-23T15:30:07;6.90;99.90
13322;DHT22;6730;46.248;6.930;2024-02-23T15:32:36;7.00;99.90
13322;DHT22;6730;46.248;6.930;2024-02-23T15:35:03;7.20;99.90
13322;DHT22;6730;46.248;6.930;2024-02-23T15:37:29;7.30;99.90
13322;DHT22;6730;46.248;6.930;2024-02-23T15:39:55;7.40;99.90
13322;DHT22;6730;46.248;6.930;2024-02-23T15:42:20;7.60;99.90
13322;DHT22;6730;46.248;6.930;2024-02-23T15:44:47;7.70;99.90
13322;DHT22;6730;46.248;6.930;2024-02-23T15:47:13;7.40;99.90
13322;DHT22;6730;46.248;6.930;2024-02-23T15:49:39;7.20;99.90
13322;DHT22;6730;46.248;6.930;2024-02-23T15:52:05;7.00;99.90
13322;DHT22;6730;46.248;6.930;2024-02-23T15:54:31;6.90;99.90